Time;durP1;ratioP1;P1;durP2;ratioP2;P2;SDS_P1;SDS_P2;PMS_P1;PMS_P2;Temp;Humidity;BMP_temperature;BMP_pressure;BME280_temperature;BME280_humidity;BME280_pressure;Samples;Min_cycle;Max_cycle;Signal;HPM_P1;HPM_P2
2022/10/20 00:01:15;;;;;;;6.07;2.37;;;;;;;7.31;79.45;101198.78;1390702;93;22404;-83
2022/10/20 00:03:43;;;;;;;3.60;1.73;;;;;;;7.26;79.77;101199.59;1394600;93;22059;-81
2022/10/20 00:06:16;;;;;;;3.53;1.93;;;;;;;7.18;81.41;101200.96;1385204;93;22135;-82
2022/10/20 00:08:44;;;;;;;3.90;1.90;;;;;;;7.15;82.45;101211.70;1389399;93;21340;-83
2022/10/20 00:11:14;;;;;;;3.13;1.60;;;;;;;7.20;81.56;101217.98;1394415;93;21556;-80
2022/10/20 00:13:42;;;;;;;3.13;1.60;;;;;;;7.21;82.46;101207.33;1394405;93;21489;-81
2022/10/20 00:16:08;;;;;;;2.90;1.83;;;;;;;7.21;82.03;101213.91;1397292;93;21436;-82
2022/10/20 00:18:35;;;;;;;6.17;1.67;;;;;;;7.24;82.51;101207.11;1389994;93;21578;-82
2022/10/20 00:21:07;;;;;;;3.83;1.63;;;;;;;7.28;82.16;101205.58;1384657;93;22460;-79
2022/10/20 00:23:34;;;;;;;2.03;1.53;;;;;;;7.30;82.65;101208.95;1367527;93;22392;-81
2022/10/20 00:26:04;;;;;;;4.03;1.70;;;;;;;7.35;82.55;101206.84;1395139;93;21526;-81
2022/10/20 00:28:32;;;;;;;4.62;1.62;;;;;;;7.44;82.62;101206.20;1388216;93;22651;-80
2022/10/20 00:30:58;;;;;;;3.10;1.80;;;;;;;7.53;82.22;101197.64;1391440;93;21555;-81
2022/10/20 00:33:27;;;;;;;4.43;1.80;;;;;;;7.61;81.57;101203.69;1394046;93;21515;-80
2022/10/20 00:35:53;;;;;;;2.10;1.37;;;;;;;7.62;81.39;101194.38;1388861;93;22252;-82
2022/10/20 00:38:20;;;;;;;4.03;1.57;;;;;;;7.65;81.35;101209.95;1393882;93;21386;-81
2022/10/20 00:40:46;;;;;;;7.30;2.67;;;;;;;7.66;80.89;101211.62;1390395;93;21530;-80
2022/10/20 00:43:15;;;;;;;4.87;1.40;;;;;;;7.72;80.29;101210.83;1391395;93;21392;-80
2022/10/20 00:45:44;;;;;;;1.77;1.50;;;;;;;7.75;80.30;101211.92;1396753;93;21422;-80
2022/10/20 00:48:15;;;;;;;4.13;2.23;;;;;;;7.73;80.16;101211.19;1395415;93;21320;-79
2022/10/20 00:50:46;;;;;;;3.03;1.77;;;;;;;7.68;80.13;101210.19;1393328;93;21600;-81
2022/10/20 00:53:13;;;;;;;2.60;1.93;;;;;;;7.63;79.51;101213.65;1395730;93;21391;-81
2022/10/20 00:55:42;;;;;;;5.13;2.17;;;;;;;7.60;79.55;101206.80;1391033;93;22459;-79
2022/10/20 00:58:08;;;;;;;3.90;2.00;;;;;;;7.52;80.79;101214.41;1393847;93;21548;-80
2022/10/20 01:00:38;;;;;;;4.70;2.13;;;;;;;7.50;81.23;101211.02;1402322;93;22306;-81
2022/10/20 01:03:07;;;;;;;3.87;1.70;;;;;;;7.52;81.01;101205.19;1399029;92;21486;-83
2022/10/20 01:05:33;;;;;;;4.87;3.07;;;;;;;7.50;80.77;101197.86;1388708;93;21364;-83
2022/10/20 01:08:00;;;;;;;3.00;1.80;;;;;;;7.49;81.45;101201.45;1387586;94;21435;-82
2022/10/20 01:10:31;;;;;;;3.73;1.77;;;;;;;7.50;80.77;101207.08;1395902;93;21276;-81
2022/10/20 01:13:05;;;;;;;2.60;2.12;;;;;;;7.49;80.40;101206.72;1392796;94;21676;-80
2022/10/20 01:16:00;;;;;;;2.40;1.70;;;;;;;7.45;80.55;101196.88;1390283;93;22004;-81
2022/10/20 01:18:38;;;;;;;4.37;1.30;;;;;;;7.42;80.68;101197.55;1395451;93;21564;-80
2022/10/20 01:21:29;;;;;;;3.90;1.90;;;;;;;7.37;80.91;101190.00;1370905;95;21472;-79
2022/10/20 01:24:04;;;;;;;3.93;1.30;;;;;;;7.37;81.15;101186.52;1396434;93;21460;-80
2022/10/20 01:26:53;;;;;;;2.20;1.80;;;;;;;7.33;81.36;101182.41;1398097;93;22921;-82
2022/10/20 01:29:33;;;;;;;3.23;2.10;;;;;;;7.29;81.63;101187.05;1398523;93;21565;-80
2022/10/20 01:32:14;;;;;;;2.60;1.73;;;;;;;7.32;81.93;101195.22;1388638;93;21977;-82
2022/10/20 01:34:57;;;;;;;3.27;1.70;;;;;;;7.30;81.98;101198.42;1394587;93;22518;-81
2022/10/20 01:37:32;;;;;;;3.67;1.90;;;;;;;7.29;82.09;101213.39;1396651;93;22452;-81
2022/10/20 01:40:04;;;;;;;2.80;1.70;;;;;;;7.29;81.60;101213.39;1395120;93;21697;-81
2022/10/20 01:42:30;;;;;;;5.63;1.90;;;;;;;7.27;82.35;101211.80;1392700;93;21450;-78
2022/10/20 01:45:01;;;;;;;4.83;2.10;;;;;;;7.29;81.29;101218.66;1395847;93;22279;-81
2022/10/20 01:47:29;;;;;;;3.13;1.90;;;;;;;7.27;81.81;101222.34;1400087;93;21413;-80
2022/10/20 01:49:57;;;;;;;5.03;1.87;;;;;;;7.20;82.95;101224.08;1393371;93;22575;-83
2022/10/20 01:52:23;;;;;;;3.43;2.03;;;;;;;7.19;81.96;101219.78;1395462;93;23550;-83
2022/10/20 01:54:49;;;;;;;3.27;2.17;;;;;;;7.16;81.93;101218.67;1351492;93;21532;-82
2022/10/20 01:57:30;;;;;;;5.70;2.40;;;;;;;7.16;81.79;101217.81;1390980;93;21621;-79
2022/10/20 02:00:12;;;;;;;4.03;1.90;;;;;;;7.16;81.83;101219.99;1398213;93;21650;-83
2022/10/20 02:02:53;;;;;;;3.33;1.60;;;;;;;7.17;82.37;101217.72;1378053;93;21362;-82
2022/10/20 02:06:00;;;;;;;3.33;1.98;;;;;;;7.20;82.03;101219.30;1457621;93;21341;-80
2022/10/20 02:08:46;;;;;;;3.97;1.30;;;;;;;7.16;82.50;101221.31;1351460;93;22517;-82
2022/10/20 02:11:23;;;;;;;3.70;2.30;;;;;;;7.13;82.13;101223.29;1392891;93;21430;-85
2022/10/20 02:13:51;;;;;;;3.10;1.87;;;;;;;7.07;82.17;101228.50;1398385;93;21379;-81
2022/10/20 02:16:32;;;;;;;7.03;2.10;;;;;;;7.01;82.16;101224.50;1393675;93;21416;-82
2022/10/20 02:18:59;;;;;;;2.67;1.80;;;;;;;7.00;81.99;101232.52;1377707;95;21601;-84
2022/10/20 02:21:25;;;;;;;4.70;1.80;;;;;;;6.95;82.05;101235.92;1394517;93;21561;-83
2022/10/20 02:23:54;;;;;;;3.40;1.70;;;;;;;6.96;82.27;101237.16;1389967;93;23249;-83
2022/10/20 02:26:24;;;;;;;4.20;2.20;;;;;;;6.97;81.63;101237.98;1394805;93;21371;-83
2022/10/20 02:28:58;;;;;;;8.28;2.00;;;;;;;6.97;81.58;101240.63;1397575;93;21423;-81
2022/10/20 02:31:25;;;;;;;8.20;1.80;;;;;;;6.91;82.39;101241.05;1390755;93;21326;-84
2022/10/20 02:33:55;;;;;;;3.40;1.83;;;;;;;6.88;81.23;101247.83;1324826;93;21239;-80
2022/10/20 02:36:27;;;;;;;5.30;2.00;;;;;;;6.81;81.50;101242.59;1351876;94;21482;-79
2022/10/20 02:38:54;;;;;;;4.57;1.93;;;;;;;6.74;81.43;101247.44;1457488;93;21382;-80
2022/10/20 02:41:20;;;;;;;3.77;1.67;;;;;;;6.70;82.27;101255.14;1378282;95;22574;-80
2022/10/20 02:43:46;;;;;;;4.27;1.80;;;;;;;6.69;81.71;101254.78;1388770;93;22078;-82
2022/10/20 02:46:12;;;;;;;4.33;1.80;;;;;;;6.67;81.89;101262.77;1398406;93;21357;-80
2022/10/20 02:48:38;;;;;;;4.57;1.80;;;;;;;6.69;81.54;101266.14;1389292;93;21400;-79
2022/10/20 02:51:05;;;;;;;3.77;1.70;;;;;;;6.69;81.62;101266.14;1394871;93;21548;-79
2022/10/20 02:53:32;;;;;;;5.57;1.97;;;;;;;6.66;81.52;101264.20;1396091;93;21356;-81
2022/10/20 02:55:58;;;;;;;3.53;2.07;;;;;;;6.63;81.17;101262.61;1393233;93;21438;-81
2022/10/20 02:58:24;;;;;;;3.87;1.80;;;;;;;6.57;81.72;101263.50;1396879;93;21483;-82
2022/10/20 03:00:51;;;;;;;4.00;2.17;;;;;;;6.54;81.83;101268.48;1379080;93;21570;-78
2022/10/20 03:03:18;;;;;;;4.30;1.90;;;;;;;6.50;82.20;101271.80;1391895;93;21519;-81
2022/10/20 03:05:44;;;;;;;2.77;1.60;;;;;;;6.50;82.12;101280.13;1394812;94;21577;-81
2022/10/20 03:08:11;;;;;;;6.00;1.60;;;;;;;6.53;81.95;101276.86;1387314;94;21631;-82
2022/10/20 03:10:37;;;;;;;4.13;1.57;;;;;;;6.56;81.55;101274.50;1394757;93;22347;-83
2022/10/20 03:13:05;;;;;;;4.97;1.63;;;;;;;6.56;80.93;101271.87;1383506;94;21555;-82
2022/10/20 03:15:32;;;;;;;3.60;1.40;;;;;;;6.61;80.92;101277.64;1386697;93;21644;-82
2022/10/20 03:17:58;;;;;;;2.20;1.43;;;;;;;6.61;80.02;101288.17;1394206;93;21526;-82
2022/10/20 03:20:24;;;;;;;6.70;1.53;;;;;;;6.67;79.97;101289.55;1391172;93;21515;-83
2022/10/20 03:22:50;;;;;;;2.73;1.50;;;;;;;6.68;79.31;101292.09;1395174;93;21599;-82
2022/10/20 03:25:16;;;;;;;4.50;1.67;;;;;;;6.68;79.18;101291.26;1397329;93;21489;-81
2022/10/20 03:27:42;;;;;;;5.07;2.47;;;;;;;6.67;78.87;101298.28;1398902;93;21556;-82
2022/10/20 03:30:10;;;;;;;4.00;1.40;;;;;;;6.65;78.60;101305.93;1394033;93;21387;-82
2022/10/20 03:32:36;;;;;;;2.30;1.20;;;;;;;6.63;78.45;101308.65;1396659;93;21394;-82
2022/10/20 03:35:02;;;;;;;5.70;1.23;;;;;;;6.61;78.20;101307.89;1397333;93;21356;-78
2022/10/20 03:37:28;;;;;;;1.93;1.50;;;;;;;6.60;77.94;101312.80;1403182;93;21371;-82
2022/10/20 03:39:54;;;;;;;3.73;1.73;;;;;;;6.64;78.10;101315.58;1397660;93;22528;-80
2022/10/20 03:42:20;;;;;;;2.57;1.50;;;;;;;6.64;78.03;101314.74;1391217;93;22566;-81
2022/10/20 03:44:46;;;;;;;2.73;1.50;;;;;;;6.60;77.89;101318.05;1379446;93;21976;-81
2022/10/20 03:47:12;;;;;;;3.37;1.63;;;;;;;6.58;77.64;101319.09;1396652;93;21430;-81
2022/10/20 03:49:39;;;;;;;6.37;1.37;;;;;;;6.57;77.49;101314.79;1396773;93;21356;-82
2022/10/20 03:52:06;;;;;;;3.10;1.70;;;;;;;6.54;77.33;101317.14;1396445;93;21525;-81
2022/10/20 03:54:33;;;;;;;3.33;1.00;;;;;;;6.55;77.69;101317.50;1391050;93;22436;-81
2022/10/20 03:57:00;;;;;;;5.57;1.43;;;;;;;6.54;77.53;101323.72;1380112;94;22106;-81
2022/10/20 03:59:26;;;;;;;3.67;1.57;;;;;;;6.54;77.56;101323.24;1389356;93;21475;-80
2022/10/20 04:01:53;;;;;;;2.43;1.43;;;;;;;6.52;77.33;101324.28;1389111;94;21474;-81
2022/10/20 04:04:19;;;;;;;4.93;2.67;;;;;;;6.46;77.83;101329.94;1385509;94;21446;-78
2022/10/20 04:06:45;;;;;;;2.00;1.20;;;;;;;6.42;77.93;101324.52;1390495;93;21437;-80
2022/10/20 04:09:11;;;;;;;3.40;1.70;;;;;;;6.38;77.56;101323.02;1393045;93;21392;-77
2022/10/20 04:11:38;;;;;;;1.90;1.37;;;;;;;6.40;77.65;101331.66;1392783;92;21391;-81
2022/10/20 04:14:04;;;;;;;3.20;1.87;;;;;;;6.41;77.61;101333.33;1391727;93;21607;-79
2022/10/20 04:16:30;;;;;;;4.30;1.73;;;;;;;6.36;77.65;101340.22;1394002;93;21558;-79
2022/10/20 04:18:56;;;;;;;2.70;1.87;;;;;;;6.35;77.31;101331.09;1393451;93;21533;-83
2022/10/20 04:21:22;;;;;;;3.00;1.50;;;;;;;6.27;77.57;101335.52;1396026;93;21357;-80
2022/10/20 04:23:48;;;;;;;4.73;1.80;;;;;;;6.20;77.76;101337.70;1393450;93;21504;-79
2022/10/20 04:26:16;;;;;;;3.60;2.40;;;;;;;6.15;77.89;101342.88;1393864;93;21430;-77
2022/10/20 04:28:42;;;;;;;2.97;1.70;;;;;;;6.09;77.95;101341.00;1331642;94;22286;-80
2022/10/20 04:31:08;;;;;;;6.43;2.10;;;;;;;6.07;78.11;101340.72;1376763;94;21437;-80
2022/10/20 04:33:35;;;;;;;7.30;2.00;;;;;;;6.05;78.10;101336.05;1388496;93;21453;-78
2022/10/20 04:36:06;;;;;;;5.43;2.03;;;;;;;6.05;78.04;101333.42;1397413;93;21334;-80
2022/10/20 04:38:34;;;;;;;3.50;1.95;;;;;;;6.00;77.90;101335.02;1394832;93;21510;-80
2022/10/20 04:41:03;;;;;;;2.33;1.53;;;;;;;5.98;77.56;101334.26;1331320;93;21409;-79
2022/10/20 04:43:31;;;;;;;6.27;2.60;;;;;;;5.91;77.75;101336.03;1342161;93;22260;-79
2022/10/20 04:46:05;;;;;;;3.90;2.20;;;;;;;5.93;77.47;101334.14;1328077;93;22052;-81
2022/10/20 04:48:31;;;;;;;2.60;1.47;;;;;;;5.90;77.63;101344.39;1387233;94;21644;-78
2022/10/20 04:51:09;;;;;;;3.17;1.50;;;;;;;5.92;77.63;101340.34;1390745;93;21519;-78
2022/10/20 04:53:36;;;;;;;5.23;1.47;;;;;;;5.91;77.36;101347.86;1395276;93;22311;-79
2022/10/20 04:56:05;;;;;;;6.83;1.97;;;;;;;5.85;77.79;101349.92;1453460;93;21261;-78
2022/10/20 04:58:32;;;;;;;3.33;1.60;;;;;;;5.78;78.07;101346.00;1355894;93;21490;-78
2022/10/20 05:01:08;;;;;;;4.77;2.70;;;;;;;5.67;78.27;101340.55;1393252;93;21498;-79
2022/10/20 05:03:36;;;;;;;3.73;2.17;;;;;;;5.65;78.53;101335.38;1397602;93;21481;-80
2022/10/20 05:06:12;;;;;;;2.50;1.30;;;;;;;5.61;78.44;101336.96;1324601;93;21248;-79
2022/10/20 05:08:40;;;;;;;3.03;1.90;;;;;;;5.60;78.45;101343.16;1361530;92;21391;-80
2022/10/20 05:11:07;;;;;;;4.17;1.70;;;;;;;5.61;78.33;101354.03;1322916;92;21207;-79
2022/10/20 05:13:34;;;;;;;2.97;1.90;;;;;;;5.55;79.08;101355.72;1384089;93;22159;-80
2022/10/20 05:16:00;;;;;;;4.43;1.70;;;;;;;5.61;79.09;101369.79;1391788;93;21509;-80
2022/10/20 05:18:27;;;;;;;4.87;1.90;;;;;;;5.65;78.84;101371.31;1390853;93;22023;-81
2022/10/20 05:20:53;;;;;;;4.13;1.77;;;;;;;5.69;78.78;101378.05;1422319;93;21502;-83
2022/10/20 05:23:19;;;;;;;4.00;2.10;;;;;;;5.71;79.03;101384.06;1396936;93;21697;-80
2022/10/20 05:25:45;;;;;;;4.37;1.70;;;;;;;5.77;78.96;101384.17;1391541;93;22529;-79
2022/10/20 05:28:12;;;;;;;4.30;1.80;;;;;;;5.75;79.55;101382.09;1388023;93;21391;-80
2022/10/20 05:30:37;;;;;;;6.87;2.07;;;;;;;5.82;79.40;101379.02;1391380;93;22338;-80
2022/10/20 05:33:04;;;;;;;2.73;1.53;;;;;;;5.87;79.72;101375.64;1389152;93;21332;-81
2022/10/20 05:35:31;;;;;;;4.00;2.10;;;;;;;5.91;79.77;101375.45;1376929;94;21449;-80
2022/10/20 05:37:57;;;;;;;3.97;1.70;;;;;;;5.97;79.79;101377.73;1329426;94;22221;-81
2022/10/20 05:40:23;;;;;;;4.83;1.73;;;;;;;6.02;79.41;101384.39;1390265;93;21473;-81
2022/10/20 05:42:49;;;;;;;3.37;1.77;;;;;;;6.10;79.39;101389.18;1391744;93;21899;-81
2022/10/20 05:45:16;;;;;;;4.97;2.03;;;;;;;6.17;78.44;101402.30;1395382;94;21630;-82
2022/10/20 05:47:42;;;;;;;3.63;1.77;;;;;;;6.28;78.44;101414.78;1391321;94;22559;-82
2022/10/20 05:50:09;;;;;;;2.77;1.50;;;;;;;6.33;78.46;101424.08;1390470;94;21414;-81
2022/10/20 05:52:36;;;;;;;2.87;2.00;;;;;;;6.37;77.69;101422.57;1322634;94;21273;-80
2022/10/20 05:55:03;;;;;;;4.67;1.77;;;;;;;6.41;77.61;101427.52;1324429;93;21411;-81
2022/10/20 05:57:29;;;;;;;3.53;2.20;;;;;;;6.44;77.31;101421.23;1312131;95;21429;-82
2022/10/20 05:59:55;;;;;;;4.93;1.90;;;;;;;6.48;76.70;101424.05;1328011;94;22072;-79
2022/10/20 06:02:21;;;;;;;2.80;1.70;;;;;;;6.56;76.48;101427.05;1324352;93;21363;-81
2022/10/20 06:04:47;;;;;;;2.40;1.70;;;;;;;6.64;76.56;101429.17;1323051;94;21311;-82
2022/10/20 06:07:13;;;;;;;2.47;1.67;;;;;;;6.71;76.15;101433.12;1325969;93;21267;-83
2022/10/20 06:09:40;;;;;;;4.50;1.93;;;;;;;6.76;76.07;101442.41;1322240;94;22205;-81
2022/10/20 06:12:06;;;;;;;3.90;2.20;;;;;;;6.85;75.93;101442.73;1329539;94;21326;-80
2022/10/20 06:14:32;;;;;;;5.70;2.67;;;;;;;6.88;75.29;101446.52;1389084;94;21421;-82
2022/10/20 06:16:59;;;;;;;4.07;1.80;;;;;;;6.95;75.07;101443.84;1384668;94;22417;-81
2022/10/20 06:19:25;;;;;;;3.87;1.53;;;;;;;6.99;74.39;101438.29;1393939;94;21399;-81
2022/10/20 06:21:52;;;;;;;2.80;2.23;;;;;;;7.00;73.92;101447.02;1389279;94;21451;-79
2022/10/20 06:24:19;;;;;;;3.00;1.60;;;;;;;7.04;73.76;101452.92;1386553;94;21706;-80
2022/10/20 06:26:45;;;;;;;6.57;2.33;;;;;;;7.08;73.53;101450.01;1464715;94;21304;-82
2022/10/20 06:29:16;;;;;;;6.70;1.53;;;;;;;7.18;73.65;101465.56;1350640;94;21347;-82
2022/10/20 06:31:49;;;;;;;3.00;1.62;;;;;;;7.30;73.50;101465.22;1388491;94;22560;-80
2022/10/20 06:34:19;;;;;;;8.63;1.80;;;;;;;7.39;73.30;101472.98;1428750;94;22137;-82
2022/10/20 06:36:47;;;;;;;4.95;1.57;;;;;;;7.44;72.28;101472.22;1323671;94;22487;-81
2022/10/20 06:39:17;;;;;;;3.30;1.70;;;;;;;7.51;72.19;101480.09;1464814;94;21193;-81
2022/10/20 06:41:49;;;;;;;3.95;1.62;;;;;;;7.61;72.02;101480.31;1319239;94;22214;-79
2022/10/20 06:44:17;;;;;;;4.30;1.70;;;;;;;7.73;71.84;101480.80;1446254;94;21445;-82
2022/10/20 06:46:43;;;;;;;2.83;1.53;;;;;;;7.79;70.68;101482.18;1320565;94;21452;-82
2022/10/20 06:49:12;;;;;;;2.40;1.43;;;;;;;7.86;70.12;101490.06;1327095;94;22439;-82
2022/10/20 06:51:38;;;;;;;3.63;1.60;;;;;;;7.97;70.51;101482.72;1463671;94;21201;-82
2022/10/20 06:54:05;;;;;;;4.10;1.67;;;;;;;8.08;69.70;101482.83;1388981;94;21459;-82
2022/10/20 06:56:34;;;;;;;2.70;1.10;;;;;;;8.06;67.66;101477.67;1325274;94;21274;-82
2022/10/20 06:59:02;;;;;;;2.60;1.50;;;;;;;8.21;68.41;101486.80;1307679;95;21393;-82
2022/10/20 07:01:34;;;;;;;2.37;1.50;;;;;;;8.31;68.48;101481.23;1327068;93;21296;-82
2022/10/20 07:04:08;;;;;;;2.83;1.73;;;;;;;8.39;66.87;101491.28;1449949;95;21267;-82
2022/10/20 07:06:38;;;;;;;3.97;1.50;;;;;;;8.51;67.26;101491.25;1472051;93;21414;-81
2022/10/20 07:09:10;;;;;;;4.73;1.73;;;;;;;8.66;66.70;101499.04;1472063;93;21222;-82
2022/10/20 07:11:36;;;;;;;2.15;1.32;;;;;;;8.79;66.88;101499.38;1466828;93;21517;-82
2022/10/20 07:14:03;;;;;;;4.43;1.37;;;;;;;8.92;66.23;101505.09;1327752;93;21429;-82
2022/10/20 07:16:32;;;;;;;1.97;1.17;;;;;;;8.95;65.36;101494.34;1327167;93;21258;-83
2022/10/20 07:19:00;;;;;;;4.20;1.47;;;;;;;8.96;64.07;101498.17;1307735;95;21422;-82
2022/10/20 07:21:29;;;;;;;3.13;1.30;;;;;;;9.01;63.62;101496.53;1326883;93;21440;-82
2022/10/20 07:23:55;;;;;;;1.80;1.10;;;;;;;9.03;62.15;101493.28;1325884;93;21566;-82
2022/10/20 07:26:28;;;;;;;3.17;1.53;;;;;;;9.11;62.89;101488.77;1377411;93;21749;-82
2022/10/20 07:28:57;;;;;;;3.57;1.67;;;;;;;9.04;62.08;101490.54;1472339;93;21503;-83
2022/10/20 07:31:28;;;;;;;1.73;1.10;;;;;;;9.08;61.89;101486.35;1325734;93;22773;-79
2022/10/20 07:33:57;;;;;;;7.03;1.47;;;;;;;9.14;61.87;101485.90;1472521;93;22303;-82
2022/10/20 07:36:28;;;;;;;2.03;1.10;;;;;;;9.18;62.37;101482.09;1331238;93;21468;-82
2022/10/20 07:38:57;;;;;;;4.83;1.30;;;;;;;9.22;61.88;101491.47;1325661;93;22387;-80
2022/10/20 07:41:25;;;;;;;3.77;1.73;;;;;;;9.35;62.49;101489.62;1383116;93;21628;-82
2022/10/20 07:43:53;;;;;;;2.70;1.20;;;;;;;9.52;62.63;101492.30;1327878;93;21517;-83
2022/10/20 07:46:19;;;;;;;7.73;2.00;;;;;;;9.62;61.34;101496.44;1325716;93;21458;-82
2022/10/20 07:48:45;;;;;;;4.87;1.70;;;;;;;9.76;61.41;101498.88;1309810;95;22370;-82
2022/10/20 07:51:30;;;;;;;6.73;1.13;;;;;;;9.86;60.87;101497.69;1316218;95;21318;-81
2022/10/20 07:54:01;;;;;;;4.50;1.30;;;;;;;9.99;59.76;101495.80;1459807;93;21406;-82
2022/10/20 07:56:34;;;;;;;4.85;1.37;;;;;;;10.04;60.13;101495.44;1400666;93;21391;-82
2022/10/20 07:59:02;;;;;;;2.13;1.00;;;;;;;10.14;60.01;101489.33;1394656;93;21347;-82
2022/10/20 08:01:29;;;;;;;2.90;1.50;;;;;;;10.30;58.99;101502.70;1398817;93;21406;-82
2022/10/20 08:03:55;;;;;;;1.27;0.90;;;;;;;10.40;59.48;101498.39;1396768;93;21450;-82
2022/10/20 08:06:22;;;;;;;2.57;1.00;;;;;;;10.44;57.80;101500.31;1378047;95;21436;-82
2022/10/20 08:08:48;;;;;;;4.07;1.63;;;;;;;10.46;57.48;101503.69;1327308;93;21310;-83
2022/10/20 08:11:14;;;;;;;2.97;1.30;;;;;;;10.48;58.35;101501.28;1441361;95;21422;-82
2022/10/20 08:13:41;;;;;;;7.30;2.00;;;;;;;10.55;58.36;101498.98;1324584;93;21383;-82
2022/10/20 08:16:10;;;;;;;3.47;1.57;;;;;;;10.65;58.35;101502.60;1327544;93;22318;-81
2022/10/20 08:18:37;;;;;;;2.67;1.60;;;;;;;10.77;57.76;101505.59;1325836;93;21455;-82
2022/10/20 08:21:17;;;;;;;8.43;2.93;;;;;;;10.74;56.76;101508.97;1328281;93;21586;-81
2022/10/20 08:23:45;;;;;;;;;;;;;;;10.84;57.23;101512.55;1345161;93;22332;-83
2022/10/20 08:26:14;;;;;;;4.00;2.53;;;;;;;10.92;55.58;101509.30;1327155;93;20492;-82
2022/10/20 08:28:40;;;;;;;5.43;1.47;;;;;;;11.00;56.19;101509.03;1472134;93;21339;-81
2022/10/20 08:31:07;;;;;;;3.83;1.40;;;;;;;11.11;56.69;101509.98;1328833;93;21400;-82
2022/10/20 08:33:34;;;;;;;3.23;1.50;;;;;;;11.18;55.27;101510.67;1309836;95;22288;-83
2022/10/20 08:36:10;;;;;;;1.77;1.30;;;;;;;11.26;54.72;101502.94;1327811;93;21509;-82
2022/10/20 08:38:37;;;;;;;4.03;2.10;;;;;;;11.38;55.15;101500.25;1467095;93;22251;-83
2022/10/20 08:41:07;;;;;;;2.23;1.03;;;;;;;11.46;55.15;101503.11;1309935;95;21364;-80
2022/10/20 08:43:37;;;;;;;2.30;1.25;;;;;;;11.37;53.51;101504.72;1333382;95;21628;-82
2022/10/20 08:46:04;;;;;;;1.37;1.00;;;;;;;11.40;53.91;101500.97;1466509;93;21392;-81
2022/10/20 08:48:33;;;;;;;2.37;1.30;;;;;;;11.45;54.67;101506.71;1310409;95;21550;-80
2022/10/20 08:50:59;;;;;;;1.97;1.30;;;;;;;11.60;54.18;101505.95;1325596;93;21274;-80
2022/10/20 08:53:28;;;;;;;4.60;1.47;;;;;;;11.67;54.25;101509.27;1328358;93;21296;-81
2022/10/20 08:55:55;;;;;;;2.27;1.30;;;;;;;11.79;54.39;101502.58;1325837;93;21303;-81
2022/10/20 08:58:24;;;;;;;2.27;1.10;;;;;;;11.88;53.68;101505.80;1315464;95;21348;-81
2022/10/20 09:00:57;;;;;;;3.13;1.23;;;;;;;11.82;52.05;101503.64;1325404;93;21296;-84
2022/10/20 09:03:30;;;;;;;2.40;1.43;;;;;;;11.77;50.50;101509.36;1361536;93;21326;-81
2022/10/20 09:06:10;;;;;;;3.40;1.33;;;;;;;11.87;50.43;101502.81;1325495;94;21354;-83
2022/10/20 09:08:38;;;;;;;1.87;1.37;;;;;;;12.49;50.85;101507.20;1331459;93;21509;-81
2022/10/20 09:11:07;;;;;;;2.90;1.33;;;;;;;12.90;49.68;101499.20;1331721;93;21495;-81
2022/10/20 09:13:36;;;;;;;6.37;1.83;;;;;;;13.42;47.27;101496.70;1354098;93;21435;-84
2022/10/20 09:16:07;;;;;;;4.50;1.53;;;;;;;14.14;46.23;101501.98;1325838;93;21432;-84
2022/10/20 09:18:34;;;;;;;2.77;1.20;;;;;;;14.47;43.34;101496.25;1326824;95;21332;-84
2022/10/20 09:21:05;;;;;;;0.77;0.73;;;;;;;15.14;42.76;101499.07;1384348;93;21354;-84
2022/10/20 09:23:41;;;;;;;1.47;1.10;;;;;;;15.50;43.65;101491.05;1340873;98;21593;-82
2022/10/20 09:26:21;;;;;;;2.37;1.20;;;;;;;16.20;44.47;101488.42;1412745;98;21398;-84
2022/10/20 09:28:50;;;;;;;1.52;1.42;;;;;;;16.49;42.23;101489.40;1350213;98;21471;-86
2022/10/20 09:31:33;;;;;;;7.67;2.17;;;;;;;17.10;43.02;101490.11;1276513;98;22304;-85
2022/10/20 09:33:59;;;;;;;2.60;1.40;;;;;;;17.67;42.72;101492.00;1277161;98;21323;-86
2022/10/20 09:36:34;;;;;;;2.83;1.42;;;;;;;18.05;41.09;101489.12;1279156;98;21448;-85
2022/10/20 09:39:01;;;;;;;1.45;1.32;;;;;;;18.41;40.93;101494.03;1277343;98;22270;-85
2022/10/20 09:41:30;;;;;;;2.90;1.05;;;;;;;18.06;37.07;101492.13;1336303;98;21465;-84
2022/10/20 09:44:10;;;;;;;1.40;1.00;;;;;;;18.21;40.19;101493.59;1276226;99;21352;-83
2022/10/20 09:46:47;;;;;;;0.90;0.90;;;;;;;18.30;40.00;101491.23;1287900;98;21436;-85
2022/10/20 09:49:33;;;;;;;1.67;1.00;;;;;;;18.50;38.55;101497.03;1412195;98;21474;-84
2022/10/20 09:52:00;;;;;;;6.28;1.35;;;;;;;18.70;39.63;101496.08;1275469;98;21345;-86
2022/10/20 09:54:28;;;;;;;3.87;1.30;;;;;;;18.66;38.64;101498.80;1338808;98;21497;-83
2022/10/20 09:57:08;;;;;;;2.10;1.35;;;;;;;18.52;39.21;101496.33;1277161;98;21258;-83
2022/10/20 09:59:45;;;;;;;1.00;0.90;;;;;;;18.63;36.78;101496.46;1404003;98;21383;-83
2022/10/20 10:02:22;;;;;;;4.05;1.00;;;;;;;18.87;36.83;101497.73;1329358;98;21517;-85
2022/10/20 10:04:53;;;;;;;3.08;0.78;;;;;;;19.11;37.85;101494.56;1476664;93;21252;-85
2022/10/20 10:07:27;;;;;;;3.62;0.85;;;;;;;19.03;37.11;101490.08;1349010;93;21450;-83
2022/10/20 10:10:14;;;;;;;1.52;0.93;;;;;;;18.90;37.55;101494.69;1399488;93;21427;-85
2022/10/20 10:12:42;;;;;;;1.67;1.37;;;;;;;18.79;37.02;101492.88;1400604;93;22646;-85
2022/10/20 10:15:20;;;;;;;1.55;0.90;;;;;;;18.51;37.30;101491.99;1383323;93;22134;-84
2022/10/20 10:17:46;;;;;;;1.60;0.82;;;;;;;18.76;37.55;101487.87;1396196;93;21695;-85
2022/10/20 10:20:17;;;;;;;4.03;1.02;;;;;;;18.74;37.46;101489.92;1402630;93;21620;-85
2022/10/20 10:22:44;;;;;;;1.82;0.95;;;;;;;18.68;36.03;101482.86;1399198;93;21412;-83
2022/10/20 10:25:28;;;;;;;1.50;0.85;;;;;;;18.73;37.43;101481.01;1399105;93;22365;-86
2022/10/20 10:28:05;;;;;;;2.20;1.05;;;;;;;18.77;37.43;101489.05;1376247;93;21616;-82
2022/10/20 10:30:37;;;;;;;1.52;1.05;;;;;;;18.60;35.72;101485.58;1377457;95;21502;-86
2022/10/20 10:33:24;;;;;;;1.35;0.98;;;;;;;18.83;37.12;101482.98;1456255;94;22102;-85
2022/10/20 10:35:51;;;;;;;1.55;0.82;;;;;;;18.53;35.88;101471.70;1321135;95;22072;-85
2022/10/20 10:38:17;;;;;;;5.22;1.75;;;;;;;17.42;35.15;101478.60;1455995;94;21312;-84
2022/10/20 10:41:03;;;;;;;1.25;1.02;;;;;;;16.10;36.59;101472.49;1314986;95;21541;-84
2022/10/20 10:43:41;;;;;;;1.12;0.82;;;;;;;15.93;38.45;101473.39;1314319;96;21452;-85
2022/10/20 10:46:28;;;;;;;1.77;0.95;;;;;;;15.83;39.18;101477.52;1451052;94;21377;-84
2022/10/20 10:49:18;;;;;;;1.30;0.80;;;;;;;15.77;38.82;101465.62;1450736;95;21378;-85
2022/10/20 10:52:24;;;;;;;1.47;1.25;;;;;;;15.13;39.07;101476.05;1318110;96;21377;-84
2022/10/20 10:55:17;;;;;;;1.20;1.10;;;;;;;15.64;39.37;101466.48;1314779;96;21437;-86
2022/10/20 10:58:03;;;;;;;2.45;0.90;;;;;;;15.90;40.44;101464.36;1456621;95;21363;-85
2022/10/20 11:01:02;;;;;;;4.25;1.25;;;;;;;16.03;40.45;101460.78;1449926;95;21355;-85
2022/10/20 11:03:57;;;;;;;1.72;1.40;;;;;;;16.19;39.94;101456.84;1312493;96;21547;-88
2022/10/20 11:06:57;;;;;;;9.43;4.78;;;;;;;16.37;40.03;101451.44;1389240;95;22510;-83
2022/10/20 11:09:50;;;;;;;2.17;1.17;;;;;;;15.90;39.46;101444.34;1379405;95;21539;-85
2022/10/20 11:12:43;;;;;;;1.35;1.05;;;;;;;15.83;40.48;101440.64;1380263;95;21495;-86
2022/10/20 11:15:41;;;;;;;1.82;0.90;;;;;;;15.48;40.29;101450.37;1380921;95;21546;-85
2022/10/20 11:18:42;;;;;;;3.97;1.37;;;;;;;15.61;40.92;101445.45;1380040;95;21443;-85
2022/10/20 11:21:40;;;;;;;13.90;6.90;;;;;;;15.44;40.75;101438.32;1380793;94;22367;-87
2022/10/20 11:24:33;;;;;;;3.87;3.10;;;;;;;15.48;40.77;101435.70;1378767;94;21442;-85
2022/10/20 11:27:10;;;;;;;1.30;1.20;;;;;;;15.53;40.71;101433.38;1378971;95;21457;-86
2022/10/20 11:29:47;;;;;;;2.47;1.20;;;;;;;15.37;40.38;101427.94;1384883;95;21481;-82
2022/10/20 11:32:40;;;;;;;3.30;1.30;;;;;;;15.24;39.10;101427.81;1376549;95;21444;-78
2022/10/20 11:35:31;;;;;;;1.42;1.30;;;;;;;14.81;40.10;101427.25;1421750;88;21842;-84
2022/10/20 11:38:06;;;;;;;1.62;1.02;;;;;;;14.70;40.01;101422.96;1387698;88;21771;-86
2022/10/20 11:40:42;;;;;;;3.45;1.07;;;;;;;15.23;43.07;101416.82;1401494;93;21576;-91
2022/10/20 11:43:43;;;;;;;2.02;1.10;;;;;;;15.62;41.79;101414.27;1382997;94;21502;-90
2022/10/20 11:46:27;;;;;;;;;;;;;;;15.48;40.93;101414.36;1409868;93;21443;-91
2022/10/20 11:48:54;;;;;;;1.70;1.30;;;;;;;15.41;40.81;101407.95;1385260;94;20446;-86
2022/10/20 11:51:35;;;;;;;2.50;1.05;;;;;;;15.44;41.05;101400.97;1402511;93;21569;-87